Time;durP1;ratioP1;P1;durP2;ratioP2;P2;SDS_P1;SDS_P2;PMS_P1;PMS_P2;Temp;Humidity;BMP_temperature;BMP_pressure;BME280_temperature;BME280_humidity;BME280_pressure;Samples;Min_cycle;Max_cycle;Signal;HPM_P1;HPM_P2
2022/09/12 00:01:49;;;;;;;0.00;0.00;;;;;;;12.77;100.00;100637.44;5070798;28;20179;-73
2022/09/12 00:04:14;;;;;;;0.00;0.00;;;;;;;12.76;100.00;100648.72;5070198;28;20178;-74
2022/09/12 00:06:40;;;;;;;0.00;0.00;;;;;;;12.82;100.00;100647.44;5070873;28;20174;-73
2022/09/12 00:09:09;;;;;;;0.00;0.00;;;;;;;12.73;100.00;100641.94;5070765;28;20340;-74
2022/09/12 00:11:36;;;;;;;0.00;0.00;;;;;;;12.67;100.00;100643.22;5070702;28;20198;-73
2022/09/12 00:14:03;;;;;;;0.00;0.00;;;;;;;12.76;100.00;100637.75;5070573;28;20178;-73
2022/09/12 00:16:31;;;;;;;0.00;0.00;;;;;;;12.65;100.00;100633.72;5070710;28;20253;-74
2022/09/12 00:18:56;;;;;;;0.00;0.00;;;;;;;12.66;100.00;100638.88;5070659;28;20193;-74
2022/09/12 00:21:23;;;;;;;0.00;0.00;;;;;;;12.68;100.00;100644.03;5071084;28;20179;-74
2022/09/12 00:23:50;;;;;;;0.10;0.10;;;;;;;12.58;100.00;100636.91;5070441;28;20775;-73
2022/09/12 00:26:16;;;;;;;0.00;0.00;;;;;;;12.58;100.00;100638.84;5070734;28;20224;-73
2022/09/12 00:28:42;;;;;;;0.00;0.00;;;;;;;12.41;100.00;100639.63;5070535;28;20201;-73
2022/09/12 00:31:11;;;;;;;0.00;0.00;;;;;;;12.27;100.00;100626.03;5070604;28;20166;-74
2022/09/12 00:33:37;;;;;;;0.00;0.00;;;;;;;12.21;100.00;100632.78;5070368;28;20768;-74
2022/09/12 00:36:05;;;;;;;0.00;0.00;;;;;;;12.26;100.00;100627.16;5070661;28;20205;-74
2022/09/12 00:38:31;;;;;;;0.00;0.00;;;;;;;12.18;100.00;100628.75;5070513;28;20171;-73
2022/09/12 00:40:56;;;;;;;0.00;0.00;;;;;;;12.23;100.00;100638.75;5070559;28;20181;-74
2022/09/12 00:43:39;;;;;;;0.00;0.00;;;;;;;12.10;100.00;100626.78;5070442;28;20185;-73
2022/09/12 00:46:28;;;;;;;0.00;0.00;;;;;;;12.01;100.00;100619.69;5070575;28;20538;-73
2022/09/12 00:49:19;;;;;;;0.00;0.00;;;;;;;12.09;100.00;100622.44;5049643;28;20210;-74
2022/09/12 00:52:07;;;;;;;0.17;0.17;;;;;;;12.14;100.00;100625.03;5062749;28;20222;-74
2022/09/12 00:54:42;;;;;;;0.00;0.00;;;;;;;11.82;100.00;100619.91;5069856;28;20187;-74
2022/09/12 00:57:10;;;;;;;0.00;0.00;;;;;;;11.90;100.00;100621.91;5070402;28;20186;-73
2022/09/12 00:59:42;;;;;;;0.00;0.00;;;;;;;11.84;100.00;100614.94;5070679;28;20175;-73
2022/09/12 01:02:08;;;;;;;0.00;0.00;;;;;;;11.51;100.00;100607.00;5070211;28;20637;-74
2022/09/12 01:04:37;;;;;;;0.00;0.00;;;;;;;11.41;100.00;100611.94;5070083;28;20185;-74
2022/09/12 01:07:05;;;;;;;0.00;0.00;;;;;;;11.39;100.00;100598.56;5070363;28;20646;-74
2022/09/12 01:09:31;;;;;;;0.00;0.00;;;;;;;11.51;100.00;100603.47;5070262;28;20678;-74
2022/09/12 01:12:00;;;;;;;0.00;0.00;;;;;;;11.65;100.00;100606.94;5070311;28;20187;-74
2022/09/12 01:14:25;;;;;;;0.00;0.00;;;;;;;11.74;100.00;100602.31;5069963;28;20175;-74
2022/09/12 01:16:51;;;;;;;0.00;0.00;;;;;;;11.80;100.00;100601.06;5073478;28;20174;-73
2022/09/12 01:19:30;;;;;;;0.00;0.00;;;;;;;12.03;100.00;100603.75;5075879;28;20194;-73
2022/09/12 01:22:17;;;;;;;0.00;0.00;;;;;;;12.01;100.00;100606.00;5073033;28;20193;-74
2022/09/12 01:24:51;;;;;;;0.00;0.00;;;;;;;12.03;100.00;100601.81;5077056;28;20649;-73
2022/09/12 01:27:32;;;;;;;0.47;0.47;;;;;;;12.01;100.00;100608.75;5074365;28;20646;-73
2022/09/12 01:30:23;;;;;;;0.37;0.37;;;;;;;11.84;100.00;100606.72;5072305;28;20201;-73
2022/09/12 01:32:54;;;;;;;1.33;1.33;;;;;;;11.72;100.00;100603.75;5057408;28;20192;-73
2022/09/12 01:35:28;;;;;;;0.00;0.00;;;;;;;11.69;100.00;100602.44;5073899;28;20518;-73
2022/09/12 01:38:10;;;;;;;0.00;0.00;;;;;;;11.73;100.00;100597.97;5073869;28;20154;-73
2022/09/12 01:40:55;;;;;;;0.00;0.00;;;;;;;11.75;100.00;100601.19;5073929;28;20170;-73
2022/09/12 01:43:30;;;;;;;0.00;0.00;;;;;;;11.66;100.00;100599.53;5074000;28;20163;-73
2022/09/12 01:46:06;;;;;;;0.00;0.00;;;;;;;11.57;100.00;100583.06;5072078;28;20536;-73
2022/09/12 01:48:38;;;;;;;0.00;0.00;;;;;;;11.71;100.00;100591.97;5073299;28;20229;-73
2022/09/12 01:51:12;;;;;;;0.00;0.00;;;;;;;11.70;100.00;100593.09;5073793;28;20170;-74
2022/09/12 01:53:43;;;;;;;0.00;0.00;;;;;;;11.66;100.00;100581.16;5071883;28;20175;-74
2022/09/12 01:56:14;;;;;;;0.00;0.00;;;;;;;11.62;100.00;100586.47;5073226;28;20219;-73
2022/09/12 01:58:51;;;;;;;0.00;0.00;;;;;;;11.59;100.00;100589.03;5071652;28;20255;-73
2022/09/12 02:01:21;;;;;;;0.00;0.00;;;;;;;11.56;100.00;100584.16;5072595;28;20220;-73
2022/09/12 02:04:09;;;;;;;0.00;0.00;;;;;;;11.44;100.00;100587.50;5072304;28;20634;-73
2022/09/12 02:06:42;;;;;;;0.00;0.00;;;;;;;11.27;100.00;100585.47;5072568;28;20179;-73
2022/09/12 02:09:11;;;;;;;0.10;0.10;;;;;;;11.25;100.00;100575.97;5072363;28;20217;-74
2022/09/12 02:11:42;;;;;;;0.00;0.00;;;;;;;11.26;100.00;100578.38;5072394;28;20213;-74
2022/09/12 02:14:18;;;;;;;0.00;0.00;;;;;;;11.32;100.00;100579.06;5072626;28;20564;-75
2022/09/12 02:17:06;;;;;;;0.00;0.00;;;;;;;11.35;100.00;100570.22;5071958;28;20170;-74
2022/09/12 02:20:02;;;;;;;0.00;0.00;;;;;;;11.41;100.00;100570.91;5072388;28;20163;-74
2022/09/12 02:22:30;;;;;;;0.00;0.00;;;;;;;11.51;100.00;100570.63;5071256;28;20186;-74
2022/09/12 02:24:59;;;;;;;0.00;0.00;;;;;;;11.51;100.00;100568.72;5071870;28;20170;-74
2022/09/12 02:27:43;;;;;;;0.00;0.00;;;;;;;11.57;100.00;100572.09;5070133;28;20660;-74
2022/09/12 02:30:09;;;;;;;0.00;0.00;;;;;;;11.61;100.00;100564.91;5070630;28;20700;-73
2022/09/12 02:32:57;;;;;;;0.00;0.00;;;;;;;11.65;100.00;100565.88;5070809;28;20311;-74
2022/09/12 02:36:03;;;;;;;0.00;0.00;;;;;;;11.70;100.00;100565.72;5071888;28;20174;-74
2022/09/12 02:38:39;;;;;;;0.00;0.00;;;;;;;11.76;100.00;100564.47;5029345;28;20194;-73
2022/09/12 02:41:05;;;;;;;1.07;1.07;;;;;;;11.70;100.00;100557.50;5067663;28;20201;-74
2022/09/12 02:43:30;;;;;;;0.00;0.00;;;;;;;11.68;100.00;100569.91;5071735;28;20174;-74
2022/09/12 02:45:55;;;;;;;0.00;0.00;;;;;;;11.60;100.00;100564.09;5072245;28;20209;-74
2022/09/12 02:48:33;;;;;;;0.00;0.00;;;;;;;11.47;100.00;100555.97;5071536;28;20252;-73
2022/09/12 02:50:58;;;;;;;0.00;0.00;;;;;;;11.45;100.00;100564.50;5070646;28;20575;-74
2022/09/12 02:53:25;;;;;;;0.00;0.00;;;;;;;11.41;100.00;100568.16;5071535;28;20166;-74
2022/09/12 02:55:51;;;;;;;0.00;0.00;;;;;;;11.38;100.00;100566.88;5071426;28;20190;-74
2022/09/12 02:58:22;;;;;;;0.00;0.00;;;;;;;11.37;100.00;100567.19;5071489;28;20228;-73
2022/09/12 03:00:51;;;;;;;0.00;0.00;;;;;;;11.35;100.00;100562.03;5071411;28;20642;-74
2022/09/12 03:03:39;;;;;;;0.00;0.00;;;;;;;11.35;100.00;100559.28;5071293;28;20197;-74
2022/09/12 03:06:17;;;;;;;0.00;0.00;;;;;;;11.35;100.00;100566.69;5071503;28;20244;-73
2022/09/12 03:08:59;;;;;;;0.00;0.00;;;;;;;11.37;100.00;100557.03;5068031;28;20808;-74
2022/09/12 03:11:34;;;;;;;0.00;0.00;;;;;;;11.42;100.00;100550.63;5068967;28;20202;-74
2022/09/12 03:14:25;;;;;;;0.00;0.00;;;;;;;11.46;100.00;100548.91;5071550;28;20649;-74
2022/09/12 03:17:10;;;;;;;0.00;0.00;;;;;;;11.51;100.00;100555.03;5071380;28;20202;-74
2022/09/12 03:19:59;;;;;;;0.00;0.00;;;;;;;11.57;100.00;100550.22;5071558;28;20171;-74
2022/09/12 03:22:35;;;;;;;0.00;0.00;;;;;;;11.58;100.00;100552.66;5071602;28;20155;-74
2022/09/12 03:25:41;;;;;;;0.00;0.00;;;;;;;11.61;100.00;100553.94;5071212;28;20166;-74
2022/09/12 03:28:12;;;;;;;0.00;0.00;;;;;;;11.46;100.00;100548.91;5030858;28;20190;-74
2022/09/12 03:30:50;;;;;;;0.00;0.00;;;;;;;11.33;100.00;100545.13;5069971;28;20187;-74
2022/09/12 03:33:21;;;;;;;0.00;0.00;;;;;;;11.30;100.00;100553.97;5071339;28;20178;-74
2022/09/12 03:35:48;;;;;;;0.00;0.00;;;;;;;11.29;100.00;100552.34;5070016;28;20179;-74
2022/09/12 03:38:14;;;;;;;0.00;0.00;;;;;;;11.29;100.00;100553.16;5069230;28;20270;-73
2022/09/12 03:40:40;;;;;;;0.77;0.77;;;;;;;11.25;100.00;100551.34;5071321;28;20186;-74
2022/09/12 03:43:07;;;;;;;0.00;0.00;;;;;;;11.08;100.00;100560.25;5071217;28;20182;-74
2022/09/12 03:45:33;;;;;;;0.00;0.00;;;;;;;10.94;100.00;100549.38;5071125;28;20224;-75
2022/09/12 03:47:58;;;;;;;0.00;0.00;;;;;;;10.97;100.00;100551.50;5070886;28;20185;-73
2022/09/12 03:50:24;;;;;;;0.00;0.00;;;;;;;11.05;100.00;100557.34;5071083;28;20167;-74
2022/09/12 03:52:50;;;;;;;0.00;0.00;;;;;;;11.09;100.00;100559.13;5070948;28;20262;-74
2022/09/12 03:55:16;;;;;;;0.00;0.00;;;;;;;11.13;100.00;100553.84;5070922;28;20614;-73
2022/09/12 03:57:42;;;;;;;0.00;0.00;;;;;;;10.96;100.00;100551.81;5071057;28;20220;-75
2022/09/12 04:00:07;;;;;;;0.00;0.00;;;;;;;11.10;100.00;100551.72;5071033;28;20186;-74
2022/09/12 04:02:33;;;;;;;0.00;0.00;;;;;;;11.18;100.00;100549.06;5070786;28;20257;-73
2022/09/12 04:04:59;;;;;;;0.00;0.00;;;;;;;11.20;100.00;100549.56;5070902;28;20216;-74
2022/09/12 04:07:24;;;;;;;0.00;0.00;;;;;;;11.21;100.00;100553.91;5070847;28;20209;-74
2022/09/12 04:09:50;;;;;;;0.00;0.00;;;;;;;11.23;100.00;100550.84;5070816;28;20662;-74
2022/09/12 04:12:16;;;;;;;0.00;0.00;;;;;;;11.25;100.00;100552.16;5069388;28;20566;-74
2022/09/12 04:14:41;;;;;;;0.00;0.00;;;;;;;11.28;100.00;100547.97;5070850;28;20175;-75
2022/09/12 04:17:07;;;;;;;0.00;0.00;;;;;;;11.32;100.00;100560.72;5071100;28;20170;-74
2022/09/12 04:19:32;;;;;;;0.00;0.00;;;;;;;11.32;100.00;100559.94;5071196;28;20198;-75
2022/09/12 04:21:58;;;;;;;0.00;0.00;;;;;;;11.34;100.00;100552.22;5070696;28;20178;-74
2022/09/12 04:24:23;;;;;;;0.00;0.00;;;;;;;11.41;100.00;100562.69;5070661;28;20194;-74
2022/09/12 04:26:49;;;;;;;0.10;0.10;;;;;;;11.23;100.00;100567.25;5071161;28;20265;-74
2022/09/12 04:29:14;;;;;;;0.00;0.00;;;;;;;11.09;100.00;100563.78;5072546;28;20690;-74
2022/09/12 04:31:40;;;;;;;0.00;0.00;;;;;;;11.04;100.00;100567.47;5073396;28;20209;-74
2022/09/12 04:34:06;;;;;;;0.00;0.00;;;;;;;11.06;100.00;100562.50;5071587;28;20637;-74
2022/09/12 04:36:33;;;;;;;0.00;0.00;;;;;;;11.10;100.00;100563.47;5071521;28;20293;-74
2022/09/12 04:38:59;;;;;;;0.00;0.00;;;;;;;11.10;100.00;100563.47;5071201;28;20656;-73
2022/09/12 04:41:28;;;;;;;0.00;0.00;;;;;;;11.11;100.00;100567.03;5069746;28;20171;-73
2022/09/12 04:43:57;;;;;;;0.00;0.00;;;;;;;11.05;100.00;100560.06;5070810;28;20171;-74
2022/09/12 04:46:24;;;;;;;0.00;0.00;;;;;;;11.03;100.00;100557.66;5070616;28;20650;-74
2022/09/12 04:48:50;;;;;;;0.00;0.00;;;;;;;11.04;100.00;100562.00;5071167;28;20707;-74
2022/09/12 04:51:27;;;;;;;0.00;0.00;;;;;;;10.97;100.00;100564.34;5074414;28;20204;-74
2022/09/12 04:53:54;;;;;;;0.00;0.00;;;;;;;11.07;100.00;100558.63;5074430;28;20177;-74
2022/09/12 04:56:20;;;;;;;0.00;0.00;;;;;;;11.07;100.00;100564.09;5074344;28;20189;-74
2022/09/12 04:58:46;;;;;;;0.00;0.00;;;;;;;11.10;100.00;100560.75;5074265;28;20182;-74
2022/09/12 05:01:17;;;;;;;0.00;0.00;;;;;;;11.09;100.00;100556.41;5074249;28;20829;-74
2022/09/12 05:03:43;;;;;;;0.00;0.00;;;;;;;11.11;100.00;100561.56;5073950;28;20163;-74
2022/09/12 05:06:13;;;;;;;0.00;0.00;;;;;;;11.15;100.00;100560.63;5074094;28;20170;-73
2022/09/12 05:08:38;;;;;;;0.00;0.00;;;;;;;11.12;100.00;100565.91;5073917;28;20198;-73
2022/09/12 05:11:06;;;;;;;0.00;0.00;;;;;;;11.14;100.00;100566.38;5073923;28;20179;-74
2022/09/12 05:13:31;;;;;;;0.00;0.00;;;;;;;11.16;100.00;100567.72;5074045;28;20171;-74
2022/09/12 05:16:00;;;;;;;0.30;0.30;;;;;;;11.05;100.00;100569.09;5073683;28;20193;-74
2022/09/12 05:18:27;;;;;;;0.00;0.00;;;;;;;10.98;100.00;100574.97;5073821;28;20265;-74
2022/09/12 05:20:53;;;;;;;0.00;0.00;;;;;;;11.00;100.00;100572.75;5073721;28;20235;-74
2022/09/12 05:23:19;;;;;;;0.00;0.00;;;;;;;11.04;100.00;100575.66;5073787;28;20175;-74
2022/09/12 05:25:52;;;;;;;0.00;0.00;;;;;;;11.03;100.00;100574.88;5072533;28;20235;-74
2022/09/12 05:28:19;;;;;;;0.00;0.00;;;;;;;11.03;100.00;100577.59;5074066;28;20174;-73
2022/09/12 05:30:44;;;;;;;0.70;0.70;;;;;;;11.05;100.00;100571.81;5073207;28;20197;-74
2022/09/12 05:33:10;;;;;;;0.00;0.00;;;;;;;11.03;100.00;100585.81;5073990;28;20174;-75
2022/09/12 05:35:39;;;;;;;0.00;0.00;;;;;;;11.05;100.00;100576.47;5073696;28;20622;-74
2022/09/12 05:38:05;;;;;;;0.00;0.00;;;;;;;11.11;100.00;100581.50;5074176;28;20174;-74
2022/09/12 05:40:32;;;;;;;0.00;0.00;;;;;;;11.14;100.00;100577.31;5074159;28;20182;-74
2022/09/12 05:42:57;;;;;;;0.00;0.00;;;;;;;11.17;100.00;100574.81;5073651;28;20194;-73
2022/09/12 05:45:22;;;;;;;0.00;0.00;;;;;;;11.21;100.00;100577.72;5073308;28;20427;-75
2022/09/12 05:47:48;;;;;;;0.00;0.00;;;;;;;11.22;100.00;100571.94;5073503;28;20270;-74
2022/09/12 05:50:13;;;;;;;0.00;0.00;;;;;;;11.19;100.00;100569.81;5073132;28;20328;-74
2022/09/12 05:52:39;;;;;;;0.00;0.00;;;;;;;11.16;100.00;100573.19;5073458;28;20259;-75
2022/09/12 05:55:04;;;;;;;0.00;0.00;;;;;;;11.16;100.00;100569.66;5072961;28;20351;-74
2022/09/12 05:57:30;;;;;;;0.00;0.00;;;;;;;11.15;100.00;100565.28;5071885;28;20185;-74
2022/09/12 05:59:57;;;;;;;0.00;0.00;;;;;;;11.25;100.00;100570.50;5073106;28;20202;-75
2022/09/12 06:02:23;;;;;;;0.00;0.00;;;;;;;11.30;100.00;100562.97;5072176;28;20257;-74
2022/09/12 06:04:48;;;;;;;0.00;0.00;;;;;;;11.38;100.00;100566.88;5073235;28;20516;-75
2022/09/12 06:07:13;;;;;;;0.00;0.00;;;;;;;11.52;100.00;100567.59;5071651;28;20228;-75
2022/09/12 06:09:39;;;;;;;0.00;0.00;;;;;;;11.69;100.00;100569.59;5073025;28;20574;-74
2022/09/12 06:12:04;;;;;;;0.00;0.00;;;;;;;11.80;100.00;100559.19;5072858;28;20171;-74
2022/09/12 06:14:31;;;;;;;0.00;0.00;;;;;;;11.88;100.00;100567.47;5072598;28;20231;-75
2022/09/12 06:16:57;;;;;;;0.10;0.10;;;;;;;11.97;100.00;100559.25;5071082;28;20187;-73
2022/09/12 06:19:23;;;;;;;0.00;0.00;;;;;;;12.01;100.00;100554.78;5072858;28;20179;-74
2022/09/12 06:21:50;;;;;;;0.00;0.00;;;;;;;12.10;100.00;100563.81;5071315;28;20269;-73
2022/09/12 06:24:16;;;;;;;0.00;0.00;;;;;;;12.12;100.00;100558.00;5072688;28;20178;-75
2022/09/12 06:26:42;;;;;;;0.00;0.00;;;;;;;12.25;100.00;100557.06;5072773;28;20171;-74
2022/09/12 06:29:10;;;;;;;0.00;0.00;;;;;;;12.32;100.00;100557.41;5072938;28;20209;-74
2022/09/12 06:31:40;;;;;;;0.00;0.00;;;;;;;12.35;100.00;100565.00;5072388;28;20257;-74
2022/09/12 06:34:08;;;;;;;0.00;0.00;;;;;;;12.40;100.00;100569.50;5072513;28;20170;-74
2022/09/12 06:36:38;;;;;;;0.00;0.00;;;;;;;12.45;100.00;100566.63;5072110;28;20584;-73
2022/09/12 06:39:06;;;;;;;0.00;0.00;;;;;;;12.46;100.00;100566.28;5071913;28;20592;-74
2022/09/12 06:41:32;;;;;;;2.93;0.47;;;;;;;12.51;100.00;100568.88;5072606;28;20199;-74
2022/09/12 06:43:59;;;;;;;0.10;0.10;;;;;;;12.55;100.00;100568.22;5071143;28;20174;-74
2022/09/12 06:46:25;;;;;;;0.00;0.00;;;;;;;12.57;100.00;100568.72;5072250;28;20171;-74
2022/09/12 06:48:50;;;;;;;0.00;0.00;;;;;;;12.61;100.00;100577.91;5072114;28;20241;-79
2022/09/12 06:51:18;;;;;;;0.00;0.00;;;;;;;12.61;100.00;100566.97;5072178;28;20194;-76
2022/09/12 06:53:45;;;;;;;0.00;0.00;;;;;;;12.67;100.00;100571.13;5072234;28;20166;-76
2022/09/12 06:56:16;;;;;;;0.00;0.00;;;;;;;12.73;100.00;100565.19;5072257;28;20193;-76
2022/09/12 06:58:42;;;;;;;0.00;0.00;;;;;;;12.76;100.00;100559.06;5074007;28;20181;-76
2022/09/12 07:01:15;;;;;;;0.00;0.00;;;;;;;12.85;100.00;100561.78;5074111;28;20179;-76
2022/09/12 07:03:43;;;;;;;0.10;0.10;;;;;;;13.11;100.00;100559.00;5072990;28;20187;-74
2022/09/12 07:06:11;;;;;;;0.27;0.27;;;;;;;13.27;100.00;100553.84;5072366;28;20251;-75
2022/09/12 07:08:37;;;;;;;0.00;0.00;;;;;;;13.39;100.00;100546.53;5071712;28;20191;-74
2022/09/12 07:11:09;;;;;;;0.00;0.00;;;;;;;13.59;100.00;100555.19;5070131;28;20181;-73
2022/09/12 07:13:35;;;;;;;0.00;0.00;;;;;;;13.67;100.00;100557.91;5071082;28;20175;-74
2022/09/12 07:16:01;;;;;;;0.40;0.40;;;;;;;13.83;100.00;100549.91;5071222;28;20186;-74
2022/09/12 07:18:28;;;;;;;0.00;0.00;;;;;;;13.99;100.00;100552.91;5071506;28;20174;-74
2022/09/12 07:20:53;;;;;;;0.00;0.00;;;;;;;14.09;100.00;100552.53;5070938;28;20174;-74
2022/09/12 07:23:18;;;;;;;0.00;0.00;;;;;;;14.24;100.00;100549.22;5071354;28;20189;-75
2022/09/12 07:25:51;;;;;;;0.00;0.00;;;;;;;14.35;100.00;100557.88;5071265;28;20705;-74
2022/09/12 07:28:16;;;;;;;10.43;9.60;;;;;;;14.44;100.00;100566.06;5070945;28;20178;-74
2022/09/12 07:30:42;;;;;;;0.00;0.00;;;;;;;14.53;100.00;100555.84;5070868;28;20170;-76
2022/09/12 07:33:07;;;;;;;0.00;0.00;;;;;;;14.56;100.00;100558.72;5069519;28;20182;-75
2022/09/12 07:35:33;;;;;;;0.10;0.10;;;;;;;14.73;100.00;100568.75;5070492;28;20175;-75
2022/09/12 07:37:58;;;;;;;0.13;0.13;;;;;;;14.81;100.00;100567.09;5070773;28;20228;-75
2022/09/12 07:40:24;;;;;;;0.07;0.07;;;;;;;14.96;100.00;100566.47;5070961;28;20225;-75
2022/09/12 07:42:49;;;;;;;0.00;0.00;;;;;;;15.01;100.00;100565.44;5070914;28;20175;-75
2022/09/12 07:45:15;;;;;;;0.00;0.00;;;;;;;15.13;100.00;100571.00;5070526;28;20658;-76
2022/09/12 07:47:40;;;;;;;0.00;0.00;;;;;;;15.17;100.00;100571.94;5070692;28;20179;-75
2022/09/12 07:50:06;;;;;;;0.60;0.60;;;;;;;15.30;100.00;100570.03;5070374;28;20206;-75
2022/09/12 07:52:31;;;;;;;1.90;0.40;;;;;;;15.35;100.00;100578.09;5070513;28;20173;-75
2022/09/12 07:54:56;;;;;;;1.30;1.23;;;;;;;15.39;100.00;100581.75;5070245;28;20279;-75
2022/09/12 07:57:22;;;;;;;0.00;0.00;;;;;;;15.47;100.00;100580.84;5070437;28;20597;-76
2022/09/12 07:59:47;;;;;;;0.87;0.83;;;;;;;15.57;100.00;100587.88;5070599;28;20583;-74
2022/09/12 08:02:15;;;;;;;0.00;0.00;;;;;;;15.64;100.00;100579.91;5070493;28;20584;-75
2022/09/12 08:04:43;;;;;;;0.00;0.00;;;;;;;15.71;100.00;100583.69;5070157;28;20254;-75
2022/09/12 08:07:08;;;;;;;0.00;0.00;;;;;;;15.68;100.00;100592.63;5070743;28;20642;-75
2022/09/12 08:09:34;;;;;;;0.00;0.00;;;;;;;15.78;100.00;100591.41;5070383;28;20220;-75
2022/09/12 08:12:00;;;;;;;0.10;0.10;;;;;;;15.92;100.00;100591.88;5070724;28;20203;-75
2022/09/12 08:14:26;;;;;;;0.10;0.10;;;;;;;16.04;100.00;100589.09;5070104;28;20167;-75
2022/09/12 08:16:51;;;;;;;0.00;0.00;;;;;;;16.13;100.00;100586.22;5069780;28;20629;-75
2022/09/12 08:19:17;;;;;;;0.00;0.00;;;;;;;16.26;100.00;100587.84;5070384;28;20689;-75
2022/09/12 08:21:42;;;;;;;0.00;0.00;;;;;;;16.36;100.00;100592.09;5070287;28;20177;-75
2022/09/12 08:24:10;;;;;;;0.00;0.00;;;;;;;16.41;100.00;100585.53;5068137;28;20182;-75
2022/09/12 08:26:36;;;;;;;0.30;0.30;;;;;;;16.42;100.00;100587.94;5070157;28;20190;-75
2022/09/12 08:29:03;;;;;;;0.00;0.00;;;;;;;16.49;100.00;100590.91;5070162;28;20201;-75
2022/09/12 08:31:35;;;;;;;0.00;0.00;;;;;;;16.57;100.00;100581.69;5070066;28;20223;-75
2022/09/12 08:34:01;;;;;;;0.10;0.10;;;;;;;16.86;100.00;100588.09;5069871;28;20177;-75
2022/09/12 08:36:28;;;;;;;0.00;0.00;;;;;;;17.01;100.00;100592.06;5070255;28;20179;-74
2022/09/12 08:38:56;;;;;;;0.00;0.00;;;;;;;17.09;98.02;100583.63;5070170;28;20228;-75
2022/09/12 08:41:35;;;;;;;0.10;0.07;;;;;;;17.16;96.58;100586.56;5070184;28;20178;-74
2022/09/12 08:44:03;;;;;;;0.00;0.00;;;;;;;17.17;96.47;100581.84;5069833;28;20788;-74
2022/09/12 08:46:41;;;;;;;0.00;0.00;;;;;;;17.28;95.38;100584.91;5070173;28;20178;-75
2022/09/12 08:49:12;;;;;;;0.00;0.00;;;;;;;17.31;95.42;100585.00;5069900;28;20229;-75
2022/09/12 08:51:38;;;;;;;0.00;0.00;;;;;;;17.43;95.42;100579.41;5069984;28;20202;-75
2022/09/12 08:54:17;;;;;;;0.00;0.00;;;;;;;17.71;93.38;100579.41;5069750;28;20174;-75
2022/09/12 08:56:43;;;;;;;0.00;0.00;;;;;;;17.75;91.77;100576.72;5068715;28;20186;-75
2022/09/12 08:59:09;;;;;;;0.00;0.00;;;;;;;17.76;90.91;100579.13;5068627;28;20257;-75
2022/09/12 09:01:41;;;;;;;0.00;0.00;;;;;;;17.90;91.64;100575.91;5068602;28;20285;-75
2022/09/12 09:04:44;;;;;;;0.00;0.00;;;;;;;17.97;90.92;100575.28;5069820;28;20175;-75
2022/09/12 09:07:34;;;;;;;0.00;0.00;;;;;;;18.13;86.56;100581.59;5069916;28;20228;-74
2022/09/12 09:09:59;;;;;;;0.00;0.00;;;;;;;18.28;89.06;100572.47;5069856;28;20212;-74
2022/09/12 09:12:43;;;;;;;0.87;0.87;;;;;;;18.33;87.72;100574.94;5069920;28;20174;-74
2022/09/12 09:15:36;;;;;;;0.37;0.37;;;;;;;18.44;85.16;100570.47;5069276;28;20179;-75
2022/09/12 09:18:08;;;;;;;0.53;0.53;;;;;;;18.62;85.96;100568.09;5069964;28;20186;-75
2022/09/12 09:20:56;;;;;;;0.63;0.63;;;;;;;18.72;82.28;100569.50;5069742;28;20200;-75
2022/09/12 09:23:27;;;;;;;0.53;0.53;;;;;;;18.82;80.45;100560.63;5070075;28;20175;-75
2022/09/12 09:26:10;;;;;;;0.57;0.57;;;;;;;18.93;79.76;100561.63;5069777;28;20257;-75
2022/09/12 09:28:51;;;;;;;1.17;1.17;;;;;;;18.98;78.30;100555.81;5069678;28;20194;-74
2022/09/12 09:31:22;;;;;;;0.00;0.00;;;;;;;18.93;77.88;100553.34;5069569;28;20175;-75
2022/09/12 09:33:54;;;;;;;0.67;0.67;;;;;;;18.97;76.16;100556.19;5069350;28;20171;-75
2022/09/12 09:36:50;;;;;;;0.00;0.00;;;;;;;19.11;76.49;100558.44;5070725;28;20208;-75
2022/09/12 09:39:31;;;;;;;0.20;0.17;;;;;;;19.21;75.78;100563.38;5064707;28;20270;-74
2022/09/12 09:42:21;;;;;;;0.00;0.00;;;;;;;19.28;73.89;100558.78;5072981;28;20174;-74
2022/09/12 09:44:47;;;;;;;0.83;0.83;;;;;;;19.35;72.26;100558.09;5072787;28;20174;-74
2022/09/12 09:47:13;;;;;;;0.00;0.00;;;;;;;19.42;70.98;100551.91;5072949;28;20181;-75
2022/09/12 09:49:40;;;;;;;0.40;0.40;;;;;;;19.44;69.88;100546.78;5072900;28;20206;-74
2022/09/12 09:52:07;;;;;;;0.00;0.00;;;;;;;19.54;70.66;100548.94;5072849;28;20175;-74
2022/09/12 09:54:37;;;;;;;0.00;0.00;;;;;;;19.50;70.25;100543.31;5072467;28;20177;-74
2022/09/12 09:57:04;;;;;;;0.00;0.00;;;;;;;19.36;70.91;100537.53;5072816;28;20216;-74
2022/09/12 09:59:32;;;;;;;0.00;0.00;;;;;;;19.30;71.29;100539.81;5072715;28;20175;-74
2022/09/12 10:02:13;;;;;;;0.77;0.20;;;;;;;19.45;72.12;100540.88;5071402;28;20248;-74
2022/09/12 10:04:51;;;;;;;0.40;0.40;;;;;;;19.66;72.58;100534.91;5072296;28;20174;-74
2022/09/12 10:07:18;;;;;;;0.10;0.10;;;;;;;19.78;71.96;100531.94;5072673;28;20174;-74
2022/09/12 10:10:05;;;;;;;0.30;0.30;;;;;;;19.92;70.68;100534.16;5072754;28;20280;-74
2022/09/12 10:12:30;;;;;;;0.80;0.80;;;;;;;19.98;70.96;100518.81;5072485;28;20170;-74
2022/09/12 10:14:59;;;;;;;0.00;0.00;;;;;;;19.99;69.07;100527.94;5071967;28;20570;-74
2022/09/12 10:17:30;;;;;;;0.00;0.00;;;;;;;19.98;68.49;100527.13;5072442;28;20211;-74
2022/09/12 10:19:56;;;;;;;0.00;0.00;;;;;;;20.01;67.53;100520.03;5072722;28;20178;-75
2022/09/12 10:22:25;;;;;;;0.37;0.37;;;;;;;20.09;67.21;100519.75;5072682;28;20206;-74
2022/09/12 10:24:57;;;;;;;0.00;0.00;;;;;;;20.14;66.65;100532.50;5072055;28;20181;-74
2022/09/12 10:27:24;;;;;;;0.00;0.00;;;;;;;20.19;65.66;100524.66;5072057;28;20527;-74
2022/09/12 10:29:59;;;;;;;0.00;0.00;;;;;;;20.29;65.79;100519.63;5072501;28;20237;-74
2022/09/12 10:32:34;;;;;;;0.00;0.00;;;;;;;20.33;64.96;100524.06;5072019;28;20557;-74
2022/09/12 10:35:04;;;;;;;0.00;0.00;;;;;;;20.10;64.42;100509.44;5072041;28;20166;-74
2022/09/12 10:37:33;;;;;;;0.00;0.00;;;;;;;20.25;66.92;100521.53;5071998;28;20697;-74
2022/09/12 10:40:00;;;;;;;0.00;0.00;;;;;;;20.38;66.09;100515.38;5070597;28;20689;-74
2022/09/12 10:42:42;;;;;;;0.63;0.63;;;;;;;20.56;66.50;100521.22;5071832;28;20251;-74
2022/09/12 10:45:31;;;;;;;0.37;0.37;;;;;;;20.46;65.12;100516.34;5071837;28;20171;-74
2022/09/12 10:48:00;;;;;;;0.00;0.00;;;;;;;20.52;65.48;100517.59;5071272;28;20175;-74
2022/09/12 10:50:34;;;;;;;0.00;0.00;;;;;;;20.57;64.99;100517.28;5071603;28;20292;-74
2022/09/12 10:53:25;;;;;;;0.93;0.60;;;;;;;20.57;65.00;100508.94;5071909;28;20661;-75
2022/09/12 10:56:12;;;;;;;0.00;0.00;;;;;;;20.65;65.65;100505.06;5071313;28;20228;-74
2022/09/12 10:58:56;;;;;;;0.23;0.23;;;;;;;20.59;64.97;100503.81;5071382;28;20539;-74
2022/09/12 11:01:43;;;;;;;0.50;0.50;;;;;;;20.57;66.03;100497.84;5071369;28;20247;-74
2022/09/12 11:04:11;;;;;;;0.00;0.00;;;;;;;20.57;65.96;100494.28;5071642;28;20565;-74
2022/09/12 11:06:48;;;;;;;0.33;0.33;;;;;;;20.48;64.30;100489.78;5071787;28;20173;-74
2022/09/12 11:09:32;;;;;;;1.87;0.87;;;;;;;20.57;65.07;100495.06;5071355;28;20343;-74
2022/09/12 11:12:03;;;;;;;0.00;0.00;;;;;;;20.75;66.20;100493.28;5071292;28;20182;-74
2022/09/12 11:14:47;;;;;;;0.00;0.00;;;;;;;20.84;62.93;100497.75;5071029;28;20208;-74
2022/09/12 11:17:20;;;;;;;0.00;0.00;;;;;;;20.83;61.08;100490.59;5071377;28;20261;-73
2022/09/12 11:20:03;;;;;;;0.77;0.77;;;;;;;20.93;60.89;100499.03;5071409;28;20178;-73
2022/09/12 11:22:53;;;;;;;0.27;0.27;;;;;;;20.57;58.45;100492.28;5071503;28;20526;-74
2022/09/12 11:25:19;;;;;;;0.20;0.20;;;;;;;20.73;61.26;100484.53;5070736;28;20178;-74
2022/09/12 11:28:23;;;;;;;1.40;0.53;;;;;;;20.84;60.75;100489.44;5069892;28;20224;-74
2022/09/12 11:30:58;;;;;;;0.30;0.30;;;;;;;20.96;59.40;100489.94;5070897;28;20185;-74
2022/09/12 11:33:55;;;;;;;0.10;0.10;;;;;;;21.00;59.28;100479.69;5070755;28;20657;-73
2022/09/12 11:36:32;;;;;;;0.00;0.00;;;;;;;21.08;60.22;100475.00;5054565;28;20281;-74
2022/09/12 11:39:22;;;;;;;0.23;0.23;;;;;;;21.16;59.07;100478.66;5070934;28;20179;-74